Terminal Aerodrome Forecast
Issued by NWS

Current Version | Previous Version | Text Only | Print | Product List | Glossary On
Versions: 1 2 3 4 5 6 7 8 9 10 11 12 13 14 15 16 17 18 19 20 21 22 23 24 25
000 FTUS41 KBOX 191729 TAFBED TAF KBED 191729Z 1918/2018 20012G22KT P6SM SCT040 OVC200 FM192200 19006KT P6SM VCSH OVC050 FM200000 20007KT 6SM -SHRA OVC020 FM200200 21007KT 4SM -SHRA BR OVC015 FM200500 22007KT 4SM BR OVC008 FM200800 23005KT 4SM BR OVC030 FM201600 23007KT P6SM BKN070=

USA.gov is the U.S. government's official web portal to all federal, state and local government web resources and services.